sensor_id;sensor_type;location;lat;lon;timestamp;P1;durP1;ratioP1;P2;durP2;ratioP2
13102;SDS011;52970;46.752;17.108;2023-02-21T00:00:45;13.57;;;10.73;;
13102;SDS011;52970;46.752;17.108;2023-02-21T00:03:31;16.35;;;11.35;;
13102;SDS011;52970;46.752;17.108;2023-02-21T00:06:15;14.85;;;10.98;;
13102;SDS011;52970;46.752;17.108;2023-02-21T00:08:59;13.80;;;11.38;;
13102;SDS011;52970;46.752;17.108;2023-02-21T00:11:43;14.57;;;11.18;;
13102;SDS011;52970;46.752;17.108;2023-02-21T00:14:27;14.43;;;11.07;;
13102;SDS011;52970;46.752;17.108;2023-02-21T00:17:11;12.60;;;10.20;;
13102;SDS011;52970;46.752;17.108;2023-02-21T00:19:55;14.07;;;10.77;;
13102;SDS011;52970;46.752;17.108;2023-02-21T00:22:39;14.95;;;10.68;;
13102;SDS011;52970;46.752;17.108;2023-02-21T00:25:23;13.00;;;10.60;;
13102;SDS011;52970;46.752;17.108;2023-02-21T00:28:07;12.65;;;9.73;;
13102;SDS011;52970;46.752;17.108;2023-02-21T00:30:51;12.25;;;10.27;;
13102;SDS011;52970;46.752;17.108;2023-02-21T00:33:35;13.98;;;11.07;;
13102;SDS011;52970;46.752;17.108;2023-02-21T00:36:19;14.15;;;11.30;;
13102;SDS011;52970;46.752;17.108;2023-02-21T00:39:03;12.32;;;10.77;;
13102;SDS011;52970;46.752;17.108;2023-02-21T00:41:47;16.10;;;11.10;;
13102;SDS011;52970;46.752;17.108;2023-02-21T00:44:31;13.32;;;10.70;;
13102;SDS011;52970;46.752;17.108;2023-02-21T00:47:15;13.85;;;10.73;;
13102;SDS011;52970;46.752;17.108;2023-02-21T00:49:59;15.02;;;10.77;;
13102;SDS011;52970;46.752;17.108;2023-02-21T00:52:43;13.52;;;9.90;;
13102;SDS011;52970;46.752;17.108;2023-02-21T00:55:28;13.07;;;9.95;;
13102;SDS011;52970;46.752;17.108;2023-02-21T00:58:12;13.63;;;10.00;;
13102;SDS011;52970;46.752;17.108;2023-02-21T01:00:56;12.20;;;9.48;;
13102;SDS011;52970;46.752;17.108;2023-02-21T01:03:40;12.35;;;10.05;;
13102;SDS011;52970;46.752;17.108;2023-02-21T01:06:24;14.02;;;11.35;;
13102;SDS011;52970;46.752;17.108;2023-02-21T01:09:07;15.98;;;11.23;;
13102;SDS011;52970;46.752;17.108;2023-02-21T01:11:51;12.77;;;10.07;;
13102;SDS011;52970;46.752;17.108;2023-02-21T01:14:35;13.45;;;10.13;;
13102;SDS011;52970;46.752;17.108;2023-02-21T01:17:20;14.40;;;11.63;;
13102;SDS011;52970;46.752;17.108;2023-02-21T01:20:04;14.77;;;11.15;;
13102;SDS011;52970;46.752;17.108;2023-02-21T01:22:47;15.13;;;11.32;;
13102;SDS011;52970;46.752;17.108;2023-02-21T01:25:31;13.95;;;10.45;;
13102;SDS011;52970;46.752;17.108;2023-02-21T01:28:15;13.70;;;11.10;;
13102;SDS011;52970;46.752;17.108;2023-02-21T01:30:59;16.23;;;11.02;;
13102;SDS011;52970;46.752;17.108;2023-02-21T01:33:43;17.70;;;11.35;;
13102;SDS011;52970;46.752;17.108;2023-02-21T01:36:27;15.48;;;10.80;;
13102;SDS011;52970;46.752;17.108;2023-02-21T01:39:11;14.93;;;11.30;;
13102;SDS011;52970;46.752;17.108;2023-02-21T01:41:56;14.15;;;11.52;;
13102;SDS011;52970;46.752;17.108;2023-02-21T01:44:41;13.48;;;11.05;;
13102;SDS011;52970;46.752;17.108;2023-02-21T01:47:26;15.15;;;10.98;;
13102;SDS011;52970;46.752;17.108;2023-02-21T01:53:09;16.63;;;11.55;;
13102;SDS011;52970;46.752;17.108;2023-02-21T01:55:54;25.65;;;15.50;;
13102;SDS011;52970;46.752;17.108;2023-02-21T01:58:38;20.17;;;12.65;;
13102;SDS011;52970;46.752;17.108;2023-02-21T02:01:26;18.02;;;12.32;;
13102;SDS011;52970;46.752;17.108;2023-02-21T02:04:11;17.45;;;12.90;;
13102;SDS011;52970;46.752;17.108;2023-02-21T02:06:55;31.35;;;17.13;;
13102;SDS011;52970;46.752;17.108;2023-02-21T02:09:39;29.50;;;17.90;;
13102;SDS011;52970;46.752;17.108;2023-02-21T02:12:46;24.65;;;14.55;;
13102;SDS011;52970;46.752;17.108;2023-02-21T02:25:59;13.60;;;11.02;;
13102;SDS011;52970;46.752;17.108;2023-02-21T02:28:35;15.15;;;11.60;;
13102;SDS011;52970;46.752;17.108;2023-02-21T02:33:45;13.82;;;10.63;;
13102;SDS011;52970;46.752;17.108;2023-02-21T02:36:20;17.08;;;11.13;;
13102;SDS011;52970;46.752;17.108;2023-02-21T02:38:57;14.32;;;10.32;;
13102;SDS011;52970;46.752;17.108;2023-02-21T02:46:22;15.90;;;11.60;;
13102;SDS011;52970;46.752;17.108;2023-02-21T02:51:14;14.65;;;11.45;;
13102;SDS011;52970;46.752;17.108;2023-02-21T02:53:40;11.88;;;10.02;;
13102;SDS011;52970;46.752;17.108;2023-02-21T02:56:07;12.15;;;9.77;;
13102;SDS011;52970;46.752;17.108;2023-02-21T02:58:37;14.55;;;10.75;;
13102;SDS011;52970;46.752;17.108;2023-02-21T03:06:18;18.27;;;11.73;;
13102;SDS011;52970;46.752;17.108;2023-02-21T03:11:16;15.45;;;11.15;;
13102;SDS011;52970;46.752;17.108;2023-02-21T03:13:44;14.00;;;11.15;;
13102;SDS011;52970;46.752;17.108;2023-02-21T03:16:22;17.45;;;11.18;;
13102;SDS011;52970;46.752;17.108;2023-02-21T03:18:53;12.32;;;10.00;;
13102;SDS011;52970;46.752;17.108;2023-02-21T03:21:22;15.43;;;10.95;;
13102;SDS011;52970;46.752;17.108;2023-02-21T03:23:49;16.20;;;11.27;;
13102;SDS011;52970;46.752;17.108;2023-02-21T03:26:15;12.18;;;10.27;;
13102;SDS011;52970;46.752;17.108;2023-02-21T03:28:41;13.40;;;10.60;;
13102;SDS011;52970;46.752;17.108;2023-02-21T03:31:08;12.10;;;10.13;;
13102;SDS011;52970;46.752;17.108;2023-02-21T03:33:34;17.48;;;11.10;;
13102;SDS011;52970;46.752;17.108;2023-02-21T03:35:59;13.32;;;10.90;;
13102;SDS011;52970;46.752;17.108;2023-02-21T03:38:27;14.02;;;10.45;;
13102;SDS011;52970;46.752;17.108;2023-02-21T03:40:52;13.18;;;10.50;;
13102;SDS011;52970;46.752;17.108;2023-02-21T03:43:18;12.75;;;10.45;;
13102;SDS011;52970;46.752;17.108;2023-02-21T03:45:44;15.18;;;10.45;;
13102;SDS011;52970;46.752;17.108;2023-02-21T03:48:09;16.05;;;10.88;;
13102;SDS011;52970;46.752;17.108;2023-02-21T03:50:34;15.73;;;10.30;;
13102;SDS011;52970;46.752;17.108;2023-02-21T03:53:00;14.52;;;10.93;;
13102;SDS011;52970;46.752;17.108;2023-02-21T03:55:25;16.50;;;11.67;;
13102;SDS011;52970;46.752;17.108;2023-02-21T03:57:50;34.57;;;17.43;;
13102;SDS011;52970;46.752;17.108;2023-02-21T04:00:16;28.50;;;15.90;;
13102;SDS011;52970;46.752;17.108;2023-02-21T04:02:41;31.45;;;15.63;;
13102;SDS011;52970;46.752;17.108;2023-02-21T04:05:07;24.00;;;15.43;;
13102;SDS011;52970;46.752;17.108;2023-02-21T04:07:32;24.15;;;14.25;;
13102;SDS011;52970;46.752;17.108;2023-02-21T04:09:58;22.20;;;13.98;;
13102;SDS011;52970;46.752;17.108;2023-02-21T04:12:23;25.65;;;13.73;;
13102;SDS011;52970;46.752;17.108;2023-02-21T04:14:49;22.05;;;13.98;;
13102;SDS011;52970;46.752;17.108;2023-02-21T04:17:16;19.33;;;12.80;;
13102;SDS011;52970;46.752;17.108;2023-02-21T04:19:41;23.60;;;14.93;;
13102;SDS011;52970;46.752;17.108;2023-02-21T04:22:06;43.83;;;23.37;;
13102;SDS011;52970;46.752;17.108;2023-02-21T04:24:32;40.43;;;22.20;;
13102;SDS011;52970;46.752;17.108;2023-02-21T04:26:57;32.03;;;18.30;;
13102;SDS011;52970;46.752;17.108;2023-02-21T04:29:22;30.30;;;18.37;;
13102;SDS011;52970;46.752;17.108;2023-02-21T04:31:48;29.40;;;16.50;;
13102;SDS011;52970;46.752;17.108;2023-02-21T04:34:13;39.53;;;21.47;;
13102;SDS011;52970;46.752;17.108;2023-02-21T04:36:39;26.93;;;16.27;;
13102;SDS011;52970;46.752;17.108;2023-02-21T04:39:05;24.10;;;15.63;;
13102;SDS011;52970;46.752;17.108;2023-02-21T04:41:30;29.97;;;17.20;;
13102;SDS011;52970;46.752;17.108;2023-02-21T04:43:56;30.23;;;18.30;;
13102;SDS011;52970;46.752;17.108;2023-02-21T04:46:21;42.53;;;20.57;;
13102;SDS011;52970;46.752;17.108;2023-02-21T04:48:47;39.83;;;20.53;;
13102;SDS011;52970;46.752;17.108;2023-02-21T04:51:14;34.37;;;18.40;;
13102;SDS011;52970;46.752;17.108;2023-02-21T04:53:40;36.37;;;19.17;;
13102;SDS011;52970;46.752;17.108;2023-02-21T04:56:06;38.13;;;18.80;;
13102;SDS011;52970;46.752;17.108;2023-02-21T04:58:31;35.77;;;18.07;;
13102;SDS011;52970;46.752;17.108;2023-02-21T05:00:56;25.83;;;16.93;;
13102;SDS011;52970;46.752;17.108;2023-02-21T05:03:22;33.17;;;17.40;;
13102;SDS011;52970;46.752;17.108;2023-02-21T05:05:48;47.53;;;22.67;;
13102;SDS011;52970;46.752;17.108;2023-02-21T05:08:13;46.70;;;21.40;;
13102;SDS011;52970;46.752;17.108;2023-02-21T05:10:39;54.40;;;23.90;;
13102;SDS011;52970;46.752;17.108;2023-02-21T05:13:04;45.73;;;22.30;;
13102;SDS011;52970;46.752;17.108;2023-02-21T05:15:29;43.70;;;22.60;;
13102;SDS011;52970;46.752;17.108;2023-02-21T05:17:54;35.03;;;18.63;;
13102;SDS011;52970;46.752;17.108;2023-02-21T05:20:20;44.47;;;20.50;;
13102;SDS011;52970;46.752;17.108;2023-02-21T05:22:47;43.17;;;19.70;;
13102;SDS011;52970;46.752;17.108;2023-02-21T05:25:13;34.93;;;18.40;;
13102;SDS011;52970;46.752;17.108;2023-02-21T05:27:38;34.60;;;19.30;;
13102;SDS011;52970;46.752;17.108;2023-02-21T05:30:04;28.30;;;14.77;;
13102;SDS011;52970;46.752;17.108;2023-02-21T05:32:29;15.13;;;11.37;;
13102;SDS011;52970;46.752;17.108;2023-02-21T05:34:54;19.43;;;12.60;;
13102;SDS011;52970;46.752;17.108;2023-02-21T05:37:20;18.83;;;12.70;;
13102;SDS011;52970;46.752;17.108;2023-02-21T05:39:46;27.00;;;17.97;;
13102;SDS011;52970;46.752;17.108;2023-02-21T05:42:11;30.10;;;19.00;;
13102;SDS011;52970;46.752;17.108;2023-02-21T05:44:36;32.47;;;18.70;;
13102;SDS011;52970;46.752;17.108;2023-02-21T05:47:02;33.13;;;19.03;;
13102;SDS011;52970;46.752;17.108;2023-02-21T05:49:27;28.47;;;19.83;;
13102;SDS011;52970;46.752;17.108;2023-02-21T05:51:53;29.00;;;19.40;;
13102;SDS011;52970;46.752;17.108;2023-02-21T05:54:18;30.63;;;19.97;;
13102;SDS011;52970;46.752;17.108;2023-02-21T05:56:45;32.27;;;21.90;;
13102;SDS011;52970;46.752;17.108;2023-02-21T05:59:11;31.17;;;21.43;;
13102;SDS011;52970;46.752;17.108;2023-02-21T06:01:37;30.63;;;21.73;;
13102;SDS011;52970;46.752;17.108;2023-02-21T06:04:03;35.97;;;23.17;;
13102;SDS011;52970;46.752;17.108;2023-02-21T06:06:29;32.23;;;22.57;;
13102;SDS011;52970;46.752;17.108;2023-02-21T06:08:54;36.93;;;24.70;;
13102;SDS011;52970;46.752;17.108;2023-02-21T06:11:27;47.67;;;28.57;;
13102;SDS011;52970;46.752;17.108;2023-02-21T06:13:53;69.73;;;39.40;;
13102;SDS011;52970;46.752;17.108;2023-02-21T06:16:18;31.70;;;21.40;;
13102;SDS011;52970;46.752;17.108;2023-02-21T06:18:44;39.13;;;25.50;;
13102;SDS011;52970;46.752;17.108;2023-02-21T06:21:09;36.77;;;24.60;;
13102;SDS011;52970;46.752;17.108;2023-02-21T06:23:34;41.50;;;24.87;;
13102;SDS011;52970;46.752;17.108;2023-02-21T06:25:59;83.10;;;53.40;;
13102;SDS011;52970;46.752;17.108;2023-02-21T06:28:28;53.50;;;35.03;;
13102;SDS011;52970;46.752;17.108;2023-02-21T06:30:54;48.13;;;31.20;;
13102;SDS011;52970;46.752;17.108;2023-02-21T06:33:19;67.73;;;44.80;;
13102;SDS011;52970;46.752;17.108;2023-02-21T06:35:45;32.77;;;23.67;;
13102;SDS011;52970;46.752;17.108;2023-02-21T06:38:10;48.33;;;32.17;;
13102;SDS011;52970;46.752;17.108;2023-02-21T06:40:35;56.70;;;32.10;;
13102;SDS011;52970;46.752;17.108;2023-02-21T06:43:00;30.43;;;21.27;;
13102;SDS011;52970;46.752;17.108;2023-02-21T06:45:26;28.37;;;20.33;;
13102;SDS011;52970;46.752;17.108;2023-02-21T06:47:51;38.23;;;23.20;;
13102;SDS011;52970;46.752;17.108;2023-02-21T06:50:16;50.93;;;35.23;;
13102;SDS011;52970;46.752;17.108;2023-02-21T06:52:41;44.90;;;31.67;;
13102;SDS011;52970;46.752;17.108;2023-02-21T06:55:07;47.07;;;30.10;;
13102;SDS011;52970;46.752;17.108;2023-02-21T06:57:32;49.00;;;34.60;;
13102;SDS011;52970;46.752;17.108;2023-02-21T06:59:57;49.40;;;33.47;;
13102;SDS011;52970;46.752;17.108;2023-02-21T07:02:23;47.33;;;38.23;;
13102;SDS011;52970;46.752;17.108;2023-02-21T07:04:49;26.33;;;18.30;;
13102;SDS011;52970;46.752;17.108;2023-02-21T07:07:14;21.97;;;15.17;;
13102;SDS011;52970;46.752;17.108;2023-02-21T07:09:40;20.47;;;14.23;;
13102;SDS011;52970;46.752;17.108;2023-02-21T07:12:06;20.33;;;15.20;;
13102;SDS011;52970;46.752;17.108;2023-02-21T07:14:33;20.87;;;14.93;;
13102;SDS011;52970;46.752;17.108;2023-02-21T07:16:58;20.30;;;14.57;;
13102;SDS011;52970;46.752;17.108;2023-02-21T07:19:23;20.60;;;14.70;;
13102;SDS011;52970;46.752;17.108;2023-02-21T07:21:48;26.57;;;17.20;;
13102;SDS011;52970;46.752;17.108;2023-02-21T07:24:14;23.10;;;15.93;;
13102;SDS011;52970;46.752;17.108;2023-02-21T07:26:39;23.63;;;16.87;;
13102;SDS011;52970;46.752;17.108;2023-02-21T07:29:05;22.90;;;16.37;;
13102;SDS011;52970;46.752;17.108;2023-02-21T07:31:30;25.07;;;17.20;;
13102;SDS011;52970;46.752;17.108;2023-02-21T07:33:55;23.60;;;17.20;;
13102;SDS011;52970;46.752;17.108;2023-02-21T07:36:20;25.70;;;17.63;;
13102;SDS011;52970;46.752;17.108;2023-02-21T07:38:47;22.30;;;16.97;;
13102;SDS011;52970;46.752;17.108;2023-02-21T07:41:12;27.30;;;19.63;;
13102;SDS011;52970;46.752;17.108;2023-02-21T07:43:38;28.23;;;20.43;;
13102;SDS011;52970;46.752;17.108;2023-02-21T07:46:03;30.73;;;21.47;;
13102;SDS011;52970;46.752;17.108;2023-02-21T07:48:29;30.20;;;21.73;;
13102;SDS011;52970;46.752;17.108;2023-02-21T07:50:54;29.33;;;21.43;;
13102;SDS011;52970;46.752;17.108;2023-02-21T07:53:19;32.97;;;22.43;;
13102;SDS011;52970;46.752;17.108;2023-02-21T07:55:45;33.77;;;23.60;;
13102;SDS011;52970;46.752;17.108;2023-02-21T07:58:10;30.53;;;21.93;;
13102;SDS011;52970;46.752;17.108;2023-02-21T08:00:35;33.70;;;24.20;;
13102;SDS011;52970;46.752;17.108;2023-02-21T08:03:01;35.73;;;24.83;;
13102;SDS011;52970;46.752;17.108;2023-02-21T08:05:26;40.47;;;26.90;;
13102;SDS011;52970;46.752;17.108;2023-02-21T08:07:51;32.23;;;22.83;;
13102;SDS011;52970;46.752;17.108;2023-02-21T08:10:21;29.13;;;20.57;;
13102;SDS011;52970;46.752;17.108;2023-02-21T08:12:47;29.77;;;20.20;;
13102;SDS011;52970;46.752;17.108;2023-02-21T08:15:13;33.13;;;20.50;;
13102;SDS011;52970;46.752;17.108;2023-02-21T08:17:38;28.70;;;20.63;;
13102;SDS011;52970;46.752;17.108;2023-02-21T08:20:03;32.70;;;21.77;;
13102;SDS011;52970;46.752;17.108;2023-02-21T08:22:30;31.13;;;22.30;;
13102;SDS011;52970;46.752;17.108;2023-02-21T08:24:55;33.10;;;21.02;;
13102;SDS011;52970;46.752;17.108;2023-02-21T08:27:21;28.52;;;21.60;;
13102;SDS011;52970;46.752;17.108;2023-02-21T08:29:50;29.58;;;20.92;;
13102;SDS011;52970;46.752;17.108;2023-02-21T08:32:16;27.85;;;19.45;;
13102;SDS011;52970;46.752;17.108;2023-02-21T08:34:43;22.20;;;16.52;;
13102;SDS011;52970;46.752;17.108;2023-02-21T08:37:09;20.60;;;16.42;;
13102;SDS011;52970;46.752;17.108;2023-02-21T08:39:48;23.48;;;15.95;;
13102;SDS011;52970;46.752;17.108;2023-02-21T08:42:14;21.45;;;15.15;;
13102;SDS011;52970;46.752;17.108;2023-02-21T08:44:43;21.05;;;16.45;;
13102;SDS011;52970;46.752;17.108;2023-02-21T08:47:09;19.73;;;16.10;;
13102;SDS011;52970;46.752;17.108;2023-02-21T08:49:34;20.42;;;14.95;;
13102;SDS011;52970;46.752;17.108;2023-02-21T08:52:04;18.48;;;13.85;;
13102;SDS011;52970;46.752;17.108;2023-02-21T08:54:29;19.40;;;14.05;;
13102;SDS011;52970;46.752;17.108;2023-02-21T08:56:54;17.85;;;13.98;;
13102;SDS011;52970;46.752;17.108;2023-02-21T08:59:22;16.27;;;13.18;;
13102;SDS011;52970;46.752;17.108;2023-02-21T09:01:47;18.15;;;13.85;;
13102;SDS011;52970;46.752;17.108;2023-02-21T09:04:13;18.65;;;14.63;;
13102;SDS011;52970;46.752;17.108;2023-02-21T09:06:38;16.23;;;13.63;;
13102;SDS011;52970;46.752;17.108;2023-02-21T09:09:03;16.45;;;13.43;;
13102;SDS011;52970;46.752;17.108;2023-02-21T09:11:28;16.08;;;12.73;;
13102;SDS011;52970;46.752;17.108;2023-02-21T09:13:54;17.90;;;13.40;;
13102;SDS011;52970;46.752;17.108;2023-02-21T09:16:19;19.40;;;13.80;;
13102;SDS011;52970;46.752;17.108;2023-02-21T09:18:52;18.98;;;14.05;;
13102;SDS011;52970;46.752;17.108;2023-02-21T09:21:17;17.77;;;14.27;;
13102;SDS011;52970;46.752;17.108;2023-02-21T09:23:42;19.13;;;14.35;;
13102;SDS011;52970;46.752;17.108;2023-02-21T09:26:08;18.88;;;14.98;;
13102;SDS011;52970;46.752;17.108;2023-02-21T09:28:33;20.60;;;14.18;;
13102;SDS011;52970;46.752;17.108;2023-02-21T09:30:58;19.45;;;14.95;;
13102;SDS011;52970;46.752;17.108;2023-02-21T09:33:23;18.13;;;14.70;;
13102;SDS011;52970;46.752;17.108;2023-02-21T09:35:49;16.98;;;13.32;;
13102;SDS011;52970;46.752;17.108;2023-02-21T09:38:14;14.50;;;12.07;;
13102;SDS011;52970;46.752;17.108;2023-02-21T09:43:42;15.82;;;12.07;;
13102;SDS011;52970;46.752;17.108;2023-02-21T09:46:01;14.90;;;11.35;;
13102;SDS011;52970;46.752;17.108;2023-02-21T09:48:27;14.20;;;11.25;;
13102;SDS011;52970;46.752;17.108;2023-02-21T09:50:54;16.88;;;11.93;;
13102;SDS011;52970;46.752;17.108;2023-02-21T09:53:28;12.68;;;10.55;;
13102;SDS011;52970;46.752;17.108;2023-02-21T09:55:56;14.38;;;11.10;;
13102;SDS011;52970;46.752;17.108;2023-02-21T09:58:22;14.25;;;11.10;;
13102;SDS011;52970;46.752;17.108;2023-02-21T10:00:48;12.07;;;9.82;;
13102;SDS011;52970;46.752;17.108;2023-02-21T10:05:45;13.40;;;10.63;;
13102;SDS011;52970;46.752;17.108;2023-02-21T10:10:43;11.45;;;9.70;;
13102;SDS011;52970;46.752;17.108;2023-02-21T10:18:18;11.18;;;9.55;;
13102;SDS011;52970;46.752;17.108;2023-02-21T10:23:15;13.27;;;11.27;;
13102;SDS011;52970;46.752;17.108;2023-02-21T10:25:42;12.77;;;11.45;;
13102;SDS011;52970;46.752;17.108;2023-02-21T10:28:08;12.40;;;9.93;;
13102;SDS011;52970;46.752;17.108;2023-02-21T10:30:37;14.95;;;11.50;;
13102;SDS011;52970;46.752;17.108;2023-02-21T10:33:04;12.93;;;10.70;;
13102;SDS011;52970;46.752;17.108;2023-02-21T10:35:33;14.93;;;11.10;;
13102;SDS011;52970;46.752;17.108;2023-02-21T10:37:58;15.70;;;11.95;;
13102;SDS011;52970;46.752;17.108;2023-02-21T10:40:35;17.30;;;11.20;;
13102;SDS011;52970;46.752;17.108;2023-02-21T10:43:04;13.38;;;10.85;;
13102;SDS011;52970;46.752;17.108;2023-02-21T10:45:35;13.43;;;10.45;;
13102;SDS011;52970;46.752;17.108;2023-02-21T10:48:06;14.05;;;10.50;;
13102;SDS011;52970;46.752;17.108;2023-02-21T10:50:50;11.18;;;9.73;;
13102;SDS011;52970;46.752;17.108;2023-02-21T10:53:36;10.18;;;9.07;;
13102;SDS011;52970;46.752;17.108;2023-02-21T10:56:35;10.77;;;9.50;;
13102;SDS011;52970;46.752;17.108;2023-02-21T11:01:40;13.93;;;10.48;;
13102;SDS011;52970;46.752;17.108;2023-02-21T11:04:06;12.15;;;9.48;;
13102;SDS011;52970;46.752;17.108;2023-02-21T11:06:53;12.40;;;10.30;;
13102;SDS011;52970;46.752;17.108;2023-02-21T11:12:04;11.80;;;9.48;;
13102;SDS011;52970;46.752;17.108;2023-02-21T11:14:30;11.20;;;8.32;;
13102;SDS011;52970;46.752;17.108;2023-02-21T11:17:12;9.48;;;8.45;;
13102;SDS011;52970;46.752;17.108;2023-02-21T11:20:23;10.45;;;7.55;;
13102;SDS011;52970;46.752;17.108;2023-02-21T11:22:24;8.70;;;6.70;;
13102;SDS011;52970;46.752;17.108;2023-02-21T11:27:25;7.15;;;6.13;;
13102;SDS011;52970;46.752;17.108;2023-02-21T11:29:51;7.03;;;6.22;;
13102;SDS011;52970;46.752;17.108;2023-02-21T11:32:30;7.82;;;6.60;;
13102;SDS011;52970;46.752;17.108;2023-02-21T11:35:00;7.45;;;6.70;;
13102;SDS011;52970;46.752;17.108;2023-02-21T11:37:25;8.27;;;6.97;;
13102;SDS011;52970;46.752;17.108;2023-02-21T11:39:51;9.07;;;6.43;;
13102;SDS011;52970;46.752;17.108;2023-02-21T11:42:25;8.48;;;7.10;;
13102;SDS011;52970;46.752;17.108;2023-02-21T11:47:38;9.70;;;7.13;;
13102;SDS011;52970;46.752;17.108;2023-02-21T11:50:11;7.53;;;6.70;;
13102;SDS011;52970;46.752;17.108;2023-02-21T11:55:38;8.80;;;7.53;;
13102;SDS011;52970;46.752;17.108;2023-02-21T11:58:24;9.75;;;7.32;;
13102;SDS011;52970;46.752;17.108;2023-02-21T12:00:52;9.00;;;7.18;;
13102;SDS011;52970;46.752;17.108;2023-02-21T12:06:12;6.97;;;5.93;;
13102;SDS011;52970;46.752;17.108;2023-02-21T12:36:56;7.97;;;5.85;;
13102;SDS011;52970;46.752;17.108;2023-02-21T12:44:21;6.35;;;5.75;;
13102;SDS011;52970;46.752;17.108;2023-02-21T12:46:58;6.30;;;5.68;;
13102;SDS011;52970;46.752;17.108;2023-02-21T12:49:30;8.52;;;5.32;;
13102;SDS011;52970;46.752;17.108;2023-02-21T12:51:57;6.18;;;5.55;;
13102;SDS011;52970;46.752;17.108;2023-02-21T12:55:11;7.72;;;5.95;;
13102;SDS011;52970;46.752;17.108;2023-02-21T12:57:23;7.32;;;4.97;;
13102;SDS011;52970;46.752;17.108;2023-02-21T13:05:18;5.57;;;4.93;;
13102;SDS011;52970;46.752;17.108;2023-02-21T13:15:42;6.22;;;4.05;;
13102;SDS011;52970;46.752;17.108;2023-02-21T13:18:14;4.05;;;3.65;;
13102;SDS011;52970;46.752;17.108;2023-02-21T13:20:44;3.95;;;3.30;;
13102;SDS011;52970;46.752;17.108;2023-02-21T13:23:11;3.60;;;3.30;;
13102;SDS011;52970;46.752;17.108;2023-02-21T13:25:59;3.72;;;3.40;;
13102;SDS011;52970;46.752;17.108;2023-02-21T13:28:29;3.92;;;3.25;;
13102;SDS011;52970;46.752;17.108;2023-02-21T13:31:01;3.58;;;3.28;;
13102;SDS011;52970;46.752;17.108;2023-02-21T13:33:37;3.30;;;3.00;;
13102;SDS011;52970;46.752;17.108;2023-02-21T13:36:19;3.53;;;2.90;;
13102;SDS011;52970;46.752;17.108;2023-02-21T13:38:44;3.00;;;2.80;;
13102;SDS011;52970;46.752;17.108;2023-02-21T13:41:10;3.47;;;2.95;;
13102;SDS011;52970;46.752;17.108;2023-02-21T13:43:48;3.33;;;2.95;;
13102;SDS011;52970;46.752;17.108;2023-02-21T13:46:24;3.67;;;3.20;;
13102;SDS011;52970;46.752;17.108;2023-02-21T13:51:49;3.15;;;2.85;;
13102;SDS011;52970;46.752;17.108;2023-02-21T13:54:20;6.80;;;4.15;;
13102;SDS011;52970;46.752;17.108;2023-02-21T13:56:47;6.82;;;5.10;;
13102;SDS011;52970;46.752;17.108;2023-02-21T14:01:48;4.03;;;3.63;;
13102;SDS011;52970;46.752;17.108;2023-02-21T14:07:12;3.40;;;3.05;;
13102;SDS011;52970;46.752;17.108;2023-02-21T14:09:38;3.97;;;3.45;;
13102;SDS011;52970;46.752;17.108;2023-02-21T14:12:04;4.15;;;3.55;;
13102;SDS011;52970;46.752;17.108;2023-02-21T14:14:31;4.07;;;3.67;;
13102;SDS011;52970;46.752;17.108;2023-02-21T14:17:02;3.30;;;3.00;;
13102;SDS011;52970;46.752;17.108;2023-02-21T14:24:34;6.50;;;3.72;;
13102;SDS011;52970;46.752;17.108;2023-02-21T14:27:01;6.45;;;3.72;;
13102;SDS011;52970;46.752;17.108;2023-02-21T14:39:53;4.18;;;3.75;;
13102;SDS011;52970;46.752;17.108;2023-02-21T14:49:50;3.92;;;3.50;;
13102;SDS011;52970;46.752;17.108;2023-02-21T15:02:44;4.47;;;3.80;;
13102;SDS011;52970;46.752;17.108;2023-02-21T15:10:43;9.25;;;6.28;;
13102;SDS011;52970;46.752;17.108;2023-02-21T15:13:19;6.43;;;4.75;;
13102;SDS011;52970;46.752;17.108;2023-02-21T15:15:44;4.63;;;4.22;;
13102;SDS011;52970;46.752;17.108;2023-02-21T15:18:11;5.38;;;4.10;;
13102;SDS011;52970;46.752;17.108;2023-02-21T15:20:37;5.35;;;4.85;;
13102;SDS011;52970;46.752;17.108;2023-02-21T15:25:34;5.30;;;4.68;;
13102;SDS011;52970;46.752;17.108;2023-02-21T15:28:00;5.78;;;5.10;;
13102;SDS011;52970;46.752;17.108;2023-02-21T15:30:28;6.05;;;5.25;;
13102;SDS011;52970;46.752;17.108;2023-02-21T15:33:39;7.15;;;6.47;;
13102;SDS011;52970;46.752;17.108;2023-02-21T15:35:43;12.02;;;10.63;;
13102;SDS011;52970;46.752;17.108;2023-02-21T15:38:12;12.10;;;10.88;;
13102;SDS011;52970;46.752;17.108;2023-02-21T15:40:39;9.45;;;8.35;;
13102;SDS011;52970;46.752;17.108;2023-02-21T15:43:04;11.32;;;10.13;;
13102;SDS011;52970;46.752;17.108;2023-02-21T15:45:32;20.20;;;18.17;;
13102;SDS011;52970;46.752;17.108;2023-02-21T15:47:58;12.73;;;11.48;;
13102;SDS011;52970;46.752;17.108;2023-02-21T15:50:28;23.05;;;20.63;;
13102;SDS011;52970;46.752;17.108;2023-02-21T15:52:54;29.38;;;26.25;;
13102;SDS011;52970;46.752;17.108;2023-02-21T15:58:08;19.52;;;17.42;;
13102;SDS011;52970;46.752;17.108;2023-02-21T16:00:37;26.52;;;21.73;;
13102;SDS011;52970;46.752;17.108;2023-02-21T16:05:46;13.38;;;10.80;;
13102;SDS011;52970;46.752;17.108;2023-02-21T16:08:12;5.72;;;5.20;;
13102;SDS011;52970;46.752;17.108;2023-02-21T16:10:38;4.18;;;3.58;;
13102;SDS011;52970;46.752;17.108;2023-02-21T16:13:05;4.25;;;3.60;;
13102;SDS011;52970;46.752;17.108;2023-02-21T16:15:32;3.47;;;3.17;;
13102;SDS011;52970;46.752;17.108;2023-02-21T16:17:58;22.38;;;14.68;;
13102;SDS011;52970;46.752;17.108;2023-02-21T16:20:29;41.42;;;25.13;;
13102;SDS011;52970;46.752;17.108;2023-02-21T16:28:22;72.55;;;39.55;;
13102;SDS011;52970;46.752;17.108;2023-02-21T16:30:47;35.75;;;22.17;;
13102;SDS011;52970;46.752;17.108;2023-02-21T16:33:13;43.38;;;27.48;;
13102;SDS011;52970;46.752;17.108;2023-02-21T16:35:38;37.03;;;27.73;;
13102;SDS011;52970;46.752;17.108;2023-02-21T16:38:04;42.17;;;34.53;;
13102;SDS011;52970;46.752;17.108;2023-02-21T16:40:32;25.10;;;21.20;;
13102;SDS011;52970;46.752;17.108;2023-02-21T16:42:58;27.20;;;22.63;;
13102;SDS011;52970;46.752;17.108;2023-02-21T16:45:25;15.95;;;13.88;;
13102;SDS011;52970;46.752;17.108;2023-02-21T16:48:09;19.00;;;14.88;;
13102;SDS011;52970;46.752;17.108;2023-02-21T16:50:38;16.48;;;13.48;;
13102;SDS011;52970;46.752;17.108;2023-02-21T16:53:04;16.85;;;11.25;;
13102;SDS011;52970;46.752;17.108;2023-02-21T16:55:29;14.13;;;9.10;;
13102;SDS011;52970;46.752;17.108;2023-02-21T16:57:59;13.50;;;7.78;;
13102;SDS011;52970;46.752;17.108;2023-02-21T17:00:25;10.68;;;6.15;;
13102;SDS011;52970;46.752;17.108;2023-02-21T17:02:51;10.65;;;5.65;;
13102;SDS011;52970;46.752;17.108;2023-02-21T17:05:16;9.98;;;8.27;;
13102;SDS011;52970;46.752;17.108;2023-02-21T17:07:42;10.68;;;7.55;;
13102;SDS011;52970;46.752;17.108;2023-02-21T17:10:08;7.70;;;6.78;;
13102;SDS011;52970;46.752;17.108;2023-02-21T17:12:34;15.60;;;8.57;;
13102;SDS011;52970;46.752;17.108;2023-02-21T17:14:59;14.45;;;9.70;;
13102;SDS011;52970;46.752;17.108;2023-02-21T17:17:25;13.02;;;7.47;;
13102;SDS011;52970;46.752;17.108;2023-02-21T17:19:50;6.30;;;5.47;;